createdAt,value
2023-08-21T00:00:01.610Z,45.4
2023-08-21T00:05:01.467Z,45.6
2023-08-21T00:10:01.537Z,44.8
2023-08-21T00:15:01.737Z,49.0
2023-08-21T00:20:01.593Z,48.5
2023-08-21T00:25:02.509Z,48.4
2023-08-21T00:30:01.508Z,49.1
2023-08-21T00:35:01.515Z,49.2
2023-08-21T00:40:01.563Z,44.9
2023-08-21T00:45:01.417Z,45.2
2023-08-21T00:55:01.472Z,44.6
2023-08-21T01:00:01.562Z,48.3
2023-08-21T01:05:01.499Z,48.3
2023-08-21T01:10:06.413Z,48.2
2023-08-21T01:15:02.737Z,48.5
2023-08-21T01:20:01.803Z,47.9
2023-08-21T01:25:01.413Z,44.0
2023-08-21T01:30:01.454Z,43.6
2023-08-21T01:35:01.409Z,43.2
2023-08-21T01:40:01.532Z,42.2
2023-08-21T01:45:01.380Z,42.6
2023-08-21T01:50:01.503Z,42.8
2023-08-21T01:55:01.420Z,43.4
2023-08-21T02:00:01.571Z,44.0
2023-08-21T02:05:01.402Z,44.6
2023-08-21T02:10:01.551Z,44.5
2023-08-21T02:15:01.644Z,44.4
2023-08-21T02:20:01.935Z,44.0
2023-08-21T02:25:01.384Z,44.4
2023-08-21T02:30:04.847Z,44.1
2023-08-21T02:35:01.375Z,43.6
2023-08-21T02:40:01.802Z,43.3
2023-08-21T02:45:01.346Z,43.4
2023-08-21T02:50:01.539Z,42.6
2023-08-21T02:55:01.376Z,43.4
2023-08-21T03:00:02.638Z,43.8
2023-08-21T03:05:01.344Z,43.9
2023-08-21T03:10:01.408Z,47.2
2023-08-21T03:15:01.341Z,47.1
2023-08-21T03:25:01.502Z,46.0
2023-08-21T03:30:01.394Z,45.7
2023-08-21T03:35:01.330Z,46.2
2023-08-21T03:40:01.470Z,46.7
2023-08-21T03:55:01.404Z,46.4
2023-08-21T04:00:01.679Z,46.4
2023-08-21T04:05:01.644Z,46.0
2023-08-21T04:10:01.822Z,42.0
2023-08-21T04:15:01.352Z,42.7
2023-08-21T04:20:01.778Z,43.4
2023-08-21T04:30:01.459Z,43.3
2023-08-21T04:35:01.611Z,43.1
2023-08-21T04:40:06.398Z,43.1
2023-08-21T04:45:01.328Z,43.1
2023-08-21T04:50:06.415Z,42.6
2023-08-21T05:00:01.594Z,42.6
2023-08-21T05:05:01.322Z,43.6
2023-08-21T05:15:01.472Z,42.8
2023-08-21T05:20:01.582Z,42.8
2023-08-21T05:25:01.332Z,42.6
2023-08-21T05:50:01.549Z,60.0
2023-08-21T05:55:01.452Z,50.3
2023-08-21T06:05:01.431Z,47.0
2023-08-21T06:10:01.775Z,46.6
2023-08-21T06:20:01.453Z,48.8
2023-08-21T06:35:01.316Z,49.5
2023-08-21T06:40:01.444Z,49.2
2023-08-21T06:45:01.384Z,45.9
2023-08-21T06:50:01.520Z,46.5
2023-08-21T06:55:01.407Z,47.4
2023-08-21T07:00:01.978Z,47.6
2023-08-21T07:05:01.708Z,48.3
2023-08-21T07:10:01.543Z,48.2
2023-08-21T07:15:01.447Z,48.4
2023-08-21T07:20:01.437Z,48.0
2023-08-21T07:25:01.690Z,48.7
2023-08-21T07:30:01.448Z,48.9
2023-08-21T07:35:01.367Z,49.0
2023-08-21T07:55:01.423Z,49.0
2023-08-21T08:00:01.454Z,47.9
2023-08-21T08:05:01.706Z,47.4
2023-08-21T08:10:01.448Z,47.8
2023-08-21T08:15:01.367Z,48.0
2023-08-21T08:20:01.491Z,48.2
2023-08-21T08:25:01.359Z,49.1
2023-08-21T08:30:02.585Z,49.6
2023-08-21T08:35:01.392Z,49.1
2023-08-21T08:40:02.466Z,48.5
2023-08-21T08:45:01.352Z,48.9
2023-08-21T08:55:01.455Z,48.7
2023-08-21T09:00:01.484Z,50.9
2023-08-21T09:05:01.434Z,50.6
2023-08-21T09:10:01.506Z,50.9
2023-08-21T09:15:01.521Z,50.2
2023-08-21T09:20:01.408Z,49.4
2023-08-21T09:30:02.495Z,47.5
2023-08-21T09:35:01.485Z,48.3
2023-08-21T09:40:01.486Z,48.0
2023-08-21T09:45:04.304Z,48.7
2023-08-21T09:50:01.480Z,49.7
2023-08-21T09:55:01.498Z,49.3
2023-08-21T10:00:01.418Z,49.2
2023-08-21T10:05:01.348Z,49.7
2023-08-21T10:10:01.525Z,49.4
2023-08-21T10:15:01.440Z,49.2
2023-08-21T10:20:01.488Z,48.7
2023-08-21T10:35:02.460Z,50.9
2023-08-21T10:50:01.470Z,51.8
2023-08-21T10:55:01.399Z,51.8
2023-08-21T11:00:01.507Z,52.0
2023-08-21T11:05:01.551Z,51.5
2023-08-21T11:10:01.422Z,52.0
2023-08-21T11:15:01.636Z,52.2
2023-08-21T11:20:01.428Z,52.7
2023-08-21T11:25:01.363Z,52.5
2023-08-21T11:30:01.481Z,52.5
2023-08-21T11:40:01.444Z,57.0
2023-08-21T11:45:01.447Z,56.8
2023-08-21T11:50:01.447Z,56.8
2023-08-21T11:55:01.526Z,58.9
2023-08-21T12:00:01.578Z,58.7
2023-08-21T12:05:01.381Z,54.7
2023-08-21T12:15:01.743Z,54.4
2023-08-21T12:20:02.946Z,53.0
2023-08-21T12:25:01.360Z,54.2
2023-08-21T12:30:01.493Z,53.8
2023-08-21T12:40:01.758Z,55.0
2023-08-21T12:45:01.594Z,56.4
2023-08-21T12:50:01.650Z,57.0
2023-08-21T12:55:01.369Z,56.7
2023-08-21T13:05:01.448Z,57.3
2023-08-21T13:10:06.381Z,56.2
2023-08-21T13:15:01.328Z,54.9
2023-08-21T13:25:01.482Z,55.8
2023-08-21T13:30:01.482Z,55.5
2023-08-21T13:35:01.323Z,56.2
2023-08-21T13:40:01.386Z,56.4
2023-08-21T13:45:01.351Z,56.2
2023-08-21T13:50:01.534Z,55.4
2023-08-21T13:55:01.379Z,56.0
2023-08-21T14:00:02.496Z,56.1
2023-08-21T14:05:01.372Z,56.3
2023-08-21T14:10:01.610Z,56.5
2023-08-21T14:15:01.401Z,56.6
2023-08-21T14:20:01.426Z,57.7
2023-08-21T14:25:01.406Z,57.5
2023-08-21T14:35:01.402Z,63.1
2023-08-21T14:40:01.426Z,62.3
2023-08-21T14:45:01.379Z,62.0
2023-08-21T14:50:01.411Z,60.7
2023-08-21T14:55:01.393Z,60.4
2023-08-21T15:00:02.395Z,54.8
2023-08-21T15:05:06.978Z,54.4
2023-08-21T15:15:01.417Z,54.3
2023-08-21T15:20:01.448Z,54.8
2023-08-21T15:25:01.401Z,56.1
2023-08-21T15:30:01.513Z,55.6
2023-08-21T15:40:02.595Z,56.7
2023-08-21T15:45:01.424Z,57.7
2023-08-21T15:50:02.479Z,56.7
2023-08-21T15:55:01.363Z,57.3
2023-08-21T16:00:01.440Z,57.4
2023-08-21T16:05:01.585Z,55.8
2023-08-21T16:15:02.536Z,55.2
2023-08-21T16:20:01.381Z,55.2
2023-08-21T16:25:01.535Z,55.5
2023-08-21T16:35:01.386Z,56.6
2023-08-21T16:45:01.581Z,56.0
2023-08-21T16:55:01.447Z,56.3
2023-08-21T17:00:01.442Z,56.0
2023-08-21T17:05:01.353Z,55.7
2023-08-21T17:15:03.426Z,54.8
2023-08-21T17:20:01.404Z,54.0
2023-08-21T17:25:15.447Z,53.9
2023-08-21T17:30:01.383Z,53.1
2023-08-21T17:35:01.330Z,51.8
2023-08-21T17:40:01.487Z,51.6
2023-08-21T17:45:07.421Z,50.6
2023-08-21T17:55:01.539Z,50.2
2023-08-21T18:00:01.503Z,49.7
2023-08-21T18:05:01.971Z,49.2
2023-08-21T18:10:02.004Z,48.8
2023-08-21T18:15:01.342Z,48.9
2023-08-21T18:20:01.592Z,48.2
2023-08-21T18:25:01.391Z,47.5
2023-08-21T18:30:01.437Z,47.1
2023-08-21T18:35:01.372Z,46.9
2023-08-21T18:40:01.475Z,46.4
2023-08-21T18:45:01.582Z,46.4
2023-08-21T19:00:01.460Z,46.8
2023-08-21T19:05:01.365Z,46.6
2023-08-21T19:10:01.418Z,46.6
2023-08-21T19:15:01.399Z,46.4
2023-08-21T19:20:01.476Z,46.4
2023-08-21T19:25:01.416Z,46.3
2023-08-21T19:30:01.533Z,46.1
2023-08-21T19:35:01.415Z,45.5
2023-08-21T19:40:01.445Z,45.6
2023-08-21T19:45:01.373Z,45.0
2023-08-21T19:50:06.490Z,45.0
2023-08-21T20:00:06.519Z,44.9
2023-08-21T20:05:01.364Z,45.1
2023-08-21T20:10:01.426Z,44.5
2023-08-21T20:15:05.649Z,44.4
2023-08-21T20:20:01.597Z,44.2
2023-08-21T20:25:01.371Z,45.8
2023-08-21T20:30:01.479Z,45.3
2023-08-21T20:35:01.375Z,45.0
2023-08-21T20:40:06.537Z,50.1
2023-08-21T20:45:01.362Z,49.4
2023-08-21T20:50:04.405Z,47.1
2023-08-21T20:55:01.321Z,47.2
2023-08-21T21:00:01.414Z,46.7
2023-08-21T21:05:01.553Z,40.9
2023-08-21T21:15:01.387Z,41.3
2023-08-21T21:20:01.510Z,41.3
2023-08-21T21:25:01.319Z,41.0
2023-08-21T21:30:01.396Z,41.3
2023-08-21T21:35:01.408Z,41.5
2023-08-21T21:40:01.440Z,41.7
2023-08-21T21:45:01.349Z,41.9
2023-08-21T21:50:01.477Z,43.2
2023-08-21T21:55:01.370Z,43.2
2023-08-21T22:00:01.525Z,42.8
2023-08-21T22:05:01.376Z,42.2
2023-08-21T22:15:02.468Z,41.2
2023-08-21T22:20:01.582Z,40.4
2023-08-21T22:25:01.363Z,40.2
2023-08-21T22:30:01.443Z,40.8
2023-08-21T22:35:01.352Z,42.2
2023-08-21T22:40:01.470Z,42.9
2023-08-21T22:45:01.393Z,42.3
2023-08-21T22:50:01.503Z,42.3
2023-08-21T22:55:01.371Z,41.6
2023-08-21T23:00:01.519Z,40.6
2023-08-21T23:05:01.366Z,42.7
2023-08-21T23:10:01.423Z,42.8
2023-08-21T23:15:01.347Z,43.2
2023-08-21T23:20:01.575Z,49.2
2023-08-21T23:25:01.365Z,49.0
2023-08-21T23:30:01.503Z,46.8
2023-08-21T23:35:01.460Z,47.2
2023-08-21T23:40:01.524Z,46.8
2023-08-21T23:45:01.361Z,40.6
2023-08-21T23:50:01.478Z,40.3
2023-08-21T23:55:01.578Z,40.5
